createdAt,value
2022-10-11T00:01:52.950Z,83.08
2022-10-11T00:04:19.350Z,82.71
2022-10-11T00:06:47.166Z,82.03
2022-10-11T00:09:14.592Z,82.12
2022-10-11T00:11:40.960Z,82.43
2022-10-11T00:14:07.418Z,82.26
2022-10-11T00:16:34.110Z,81.94
2022-10-11T00:19:00.499Z,81.47
2022-10-11T00:21:27.100Z,81.73
2022-10-11T00:23:53.586Z,81.68
2022-10-11T00:26:19.990Z,81.97
2022-10-11T00:28:46.505Z,82.15
2022-10-11T00:31:15.650Z,82.47
2022-10-11T00:33:42.041Z,82.43
2022-10-11T00:36:09.545Z,82.88
2022-10-11T00:38:36.214Z,83.04
2022-10-11T00:41:02.721Z,82.55
2022-10-11T00:43:30.697Z,83.03
2022-10-11T00:45:56.984Z,83.44
2022-10-11T00:48:42.350Z,83.24
2022-10-11T00:51:26.275Z,82.48
2022-10-11T00:53:53.469Z,82.29
2022-10-11T00:56:24.233Z,82.39
2022-10-11T00:58:50.773Z,82.80
2022-10-11T01:01:17.197Z,83.02
2022-10-11T01:03:44.233Z,82.69
2022-10-11T01:06:10.648Z,82.47
2022-10-11T01:08:38.584Z,82.37
2022-10-11T01:11:05.781Z,82.45
2022-10-11T01:13:51.217Z,81.87
2022-10-11T01:16:40.742Z,81.93
2022-10-11T01:19:16.351Z,82.04
2022-10-11T01:21:49.170Z,81.79
2022-10-11T01:24:37.314Z,81.71
2022-10-11T01:27:09.679Z,81.82
2022-10-11T01:29:45.273Z,81.62
2022-10-11T01:32:26.198Z,81.52
2022-10-11T01:34:59.752Z,81.47
2022-10-11T01:37:31.902Z,81.37
2022-10-11T01:40:09.675Z,81.11
2022-10-11T01:42:40.149Z,81.20
2022-10-11T01:45:12.845Z,81.63
2022-10-11T01:47:39.237Z,81.58
2022-10-11T01:50:08.022Z,81.51
2022-10-11T01:52:35.889Z,81.37
2022-10-11T01:55:25.604Z,80.72
2022-10-11T01:58:09.991Z,80.58
2022-10-11T02:00:42.421Z,80.32
2022-10-11T02:03:19.689Z,81.01
2022-10-11T02:05:45.946Z,81.74
2022-10-11T02:08:31.028Z,82.13
2022-10-11T02:11:00.463Z,81.96
2022-10-11T02:13:31.660Z,81.93
2022-10-11T02:16:02.069Z,81.45
2022-10-11T02:18:34.556Z,80.96
2022-10-11T02:21:02.680Z,81.53
2022-10-11T02:23:36.211Z,81.60
2022-10-11T02:26:05.174Z,81.25
2022-10-11T02:28:35.888Z,81.29
2022-10-11T02:31:04.260Z,81.24
2022-10-11T02:33:39.076Z,81.65
2022-10-11T02:36:10.942Z,82.27
2022-10-11T02:38:45.109Z,83.45
2022-10-11T02:41:32.579Z,83.29
2022-10-11T02:44:09.413Z,83.42
2022-10-11T02:46:36.741Z,83.68
2022-10-11T02:49:03.304Z,83.20
2022-10-11T02:51:30.859Z,82.80
2022-10-11T02:53:57.284Z,82.49
2022-10-11T02:56:23.635Z,82.63
2022-10-11T02:58:50.033Z,82.68
2022-10-11T03:01:16.497Z,82.22
2022-10-11T03:03:42.850Z,82.26
2022-10-11T03:06:09.790Z,82.17
2022-10-11T03:08:36.166Z,82.36
2022-10-11T03:11:02.537Z,82.35
2022-10-11T03:13:28.901Z,82.50
2022-10-11T03:16:02.934Z,82.78
2022-10-11T03:18:30.636Z,82.77
2022-10-11T03:20:57.081Z,82.80
2022-10-11T03:23:23.431Z,82.23
2022-10-11T03:25:51.851Z,82.71
2022-10-11T03:28:18.692Z,83.27
2022-10-11T03:30:49.705Z,83.32
2022-10-11T03:33:17.099Z,83.64
2022-10-11T03:35:47.763Z,83.88
2022-10-11T03:38:16.176Z,84.01
2022-10-11T03:40:43.574Z,83.98
2022-10-11T03:43:10.578Z,83.80
2022-10-11T03:45:37.068Z,83.91
2022-10-11T03:48:04.210Z,83.87
2022-10-11T03:50:31.251Z,83.94
2022-10-11T03:52:57.624Z,84.25
2022-10-11T03:55:24.000Z,83.86
2022-10-11T03:57:50.351Z,83.81
2022-10-11T04:00:17.078Z,84.03
2022-10-11T04:02:43.429Z,84.40
2022-10-11T04:05:10.296Z,84.46
2022-10-11T04:07:36.656Z,84.30
2022-10-11T04:10:03.125Z,84.60
2022-10-11T04:12:29.494Z,84.31
2022-10-11T04:14:55.843Z,84.58
2022-10-11T04:17:22.203Z,83.83
2022-10-11T04:19:48.548Z,84.50
2022-10-11T04:22:14.919Z,84.56
2022-10-11T04:24:41.310Z,83.96
2022-10-11T04:27:07.722Z,83.85
2022-10-11T04:29:34.164Z,83.74
2022-10-11T04:32:00.550Z,84.04
2022-10-11T04:34:26.921Z,84.13
2022-10-11T04:36:53.290Z,84.20
2022-10-11T04:39:19.697Z,84.32
2022-10-11T04:41:46.065Z,84.15
2022-10-11T04:44:12.420Z,84.29
2022-10-11T04:46:38.885Z,84.44
2022-10-11T04:49:05.469Z,84.80
2022-10-11T04:51:33.641Z,84.58
2022-10-11T04:54:00.018Z,84.15
2022-10-11T04:56:26.422Z,84.21
2022-10-11T04:58:54.425Z,83.86
2022-10-11T05:01:21.151Z,83.72
2022-10-11T05:03:48.388Z,83.94
2022-10-11T05:06:14.846Z,83.72
2022-10-11T05:08:41.287Z,83.91
2022-10-11T05:11:11.371Z,84.29
2022-10-11T05:13:37.860Z,84.90
2022-10-11T05:16:10.431Z,84.49
2022-10-11T05:18:37.195Z,84.01
2022-10-11T05:21:09.485Z,84.02
2022-10-11T05:23:37.067Z,83.71
2022-10-11T05:26:04.247Z,83.60
2022-10-11T05:28:31.391Z,83.60
2022-10-11T05:30:58.369Z,83.80
2022-10-11T05:33:25.870Z,83.47
2022-10-11T05:35:52.821Z,83.03
2022-10-11T05:38:19.288Z,83.46
2022-10-11T05:40:45.733Z,83.62
2022-10-11T05:43:12.280Z,83.43
2022-10-11T05:45:39.537Z,83.16
2022-10-11T05:48:06.057Z,83.12
2022-10-11T05:50:32.570Z,82.98
2022-10-11T05:52:59.043Z,83.32
2022-10-11T05:55:25.640Z,83.31
2022-10-11T05:57:56.214Z,83.18
2022-10-11T06:00:23.795Z,83.01
2022-10-11T06:02:50.174Z,83.18
2022-10-11T06:05:16.904Z,83.15
2022-10-11T06:07:43.346Z,83.17
2022-10-11T06:10:09.933Z,83.44
2022-10-11T06:12:36.316Z,82.87
2022-10-11T06:15:03.992Z,82.97
2022-10-11T06:17:30.513Z,83.00
2022-10-11T06:19:56.894Z,82.66
2022-10-11T06:22:23.336Z,83.19
2022-10-11T06:24:49.758Z,83.51
2022-10-11T06:27:16.229Z,83.49
2022-10-11T06:29:42.592Z,83.15
2022-10-11T06:32:09.065Z,83.03
2022-10-11T06:34:35.437Z,83.05
2022-10-11T06:37:01.825Z,83.59
2022-10-11T06:39:28.267Z,83.61
2022-10-11T06:41:54.659Z,83.34
2022-10-11T06:44:21.085Z,83.19
2022-10-11T06:46:47.447Z,82.82
2022-10-11T06:49:13.837Z,82.91
2022-10-11T06:51:40.242Z,83.03
2022-10-11T06:54:06.781Z,83.32
2022-10-11T06:56:33.189Z,82.95
2022-10-11T06:59:00.173Z,83.36
2022-10-11T07:01:27.078Z,82.83
2022-10-11T07:03:55.303Z,82.52
2022-10-11T07:06:23.761Z,82.51
2022-10-11T07:08:50.344Z,82.25
2022-10-11T07:11:22.408Z,82.59
2022-10-11T07:13:51.060Z,82.22
2022-10-11T07:16:18.000Z,82.47
2022-10-11T07:18:45.015Z,82.22
2022-10-11T07:21:13.512Z,82.11
2022-10-11T07:23:39.958Z,82.15
2022-10-11T07:26:07.544Z,82.06
2022-10-11T07:28:34.945Z,81.66
2022-10-11T07:31:12.798Z,81.59
2022-10-11T07:33:39.387Z,81.46
2022-10-11T07:36:06.791Z,80.90
2022-10-11T07:38:33.918Z,80.85
2022-10-11T07:41:05.257Z,80.74
2022-10-11T07:43:31.743Z,80.13
2022-10-11T07:46:03.946Z,80.20
2022-10-11T07:48:31.624Z,80.01
2022-10-11T07:51:18.886Z,79.52
2022-10-11T07:53:47.508Z,79.59
2022-10-11T07:56:17.823Z,79.63
2022-10-11T07:58:44.653Z,79.83
2022-10-11T08:01:11.649Z,79.47
2022-10-11T08:03:38.188Z,79.38
2022-10-11T08:06:08.939Z,79.34
2022-10-11T08:08:36.318Z,79.39
2022-10-11T08:11:02.875Z,79.36
2022-10-11T08:13:29.260Z,79.29
2022-10-11T08:15:56.270Z,79.47
2022-10-11T08:18:22.644Z,78.90
2022-10-11T08:20:49.032Z,79.07
2022-10-11T08:23:17.023Z,79.06
2022-10-11T08:25:45.210Z,78.99
2022-10-11T08:28:16.587Z,78.71
2022-10-11T08:30:50.782Z,78.30
2022-10-11T08:33:18.078Z,77.72
2022-10-11T08:35:44.563Z,77.28
2022-10-11T08:38:11.226Z,76.82
2022-10-11T08:40:37.639Z,76.42
2022-10-11T08:43:06.923Z,76.03
2022-10-11T08:45:39.419Z,75.12
2022-10-11T08:48:18.088Z,74.95
2022-10-11T08:50:47.264Z,74.72
2022-10-11T08:53:21.653Z,73.12
2022-10-11T08:55:51.140Z,71.78
2022-10-11T08:58:21.482Z,71.18
2022-10-11T09:00:51.909Z,70.98
2022-10-11T09:03:39.975Z,69.40
2022-10-11T09:06:15.208Z,68.94
2022-10-11T09:09:05.942Z,67.18
2022-10-11T09:11:32.220Z,67.17
2022-10-11T09:14:11.041Z,65.20
2022-10-11T09:16:55.623Z,65.53
2022-10-11T09:19:40.715Z,65.98
2022-10-11T09:22:37.834Z,63.48
2022-10-11T09:25:23.535Z,63.25
2022-10-11T09:28:02.746Z,64.57
2022-10-11T09:30:29.830Z,64.39
2022-10-11T09:33:19.825Z,63.77
2022-10-11T09:35:51.812Z,63.44
2022-10-11T09:38:26.675Z,63.50
2022-10-11T09:41:06.073Z,63.25
2022-10-11T09:43:32.479Z,62.68
2022-10-11T09:45:58.893Z,62.90
2022-10-11T09:48:30.547Z,63.47
2022-10-11T09:51:03.178Z,63.89
2022-10-11T09:54:03.464Z,62.24
2022-10-11T09:56:31.414Z,62.65
2022-10-11T09:59:14.553Z,61.20
2022-10-11T10:01:40.989Z,61.44
2022-10-11T10:04:11.943Z,60.38
2022-10-11T10:06:38.871Z,61.13
2022-10-11T10:09:27.180Z,57.97
2022-10-11T10:11:54.369Z,57.97
2022-10-11T10:14:26.687Z,59.96
2022-10-11T10:17:01.837Z,56.88
2022-10-11T10:19:28.483Z,58.69
2022-10-11T10:21:55.817Z,57.67
2022-10-11T10:24:34.705Z,56.49
2022-10-11T10:27:10.239Z,56.11
2022-10-11T10:29:37.686Z,56.86
2022-10-11T10:32:20.608Z,56.74
2022-10-11T10:34:55.482Z,56.85
2022-10-11T10:37:56.988Z,56.30
2022-10-11T10:40:39.545Z,56.56
2022-10-11T10:43:06.169Z,57.30
2022-10-11T10:45:44.489Z,56.06
2022-10-11T10:49:11.690Z,56.62
2022-10-11T10:51:48.406Z,55.71
2022-10-11T10:54:43.118Z,55.62
2022-10-11T10:57:31.380Z,54.88
2022-10-11T10:59:57.594Z,56.97
2022-10-11T11:02:40.639Z,56.27
2022-10-11T11:05:17.989Z,55.26
2022-10-11T11:07:54.193Z,55.43
2022-10-11T11:10:30.553Z,55.35
2022-10-11T11:13:19.212Z,55.62
2022-10-11T11:16:12.978Z,56.34
2022-10-11T11:18:50.606Z,56.88
2022-10-11T11:21:25.057Z,57.15
2022-10-11T11:24:07.001Z,54.88
2022-10-11T11:26:44.725Z,56.03
2022-10-11T11:29:23.193Z,56.76
2022-10-11T11:32:05.374Z,55.73
2022-10-11T11:34:38.748Z,56.24
2022-10-11T11:37:30.748Z,55.99
2022-10-11T11:40:10.539Z,55.50
2022-10-11T11:42:45.016Z,56.17
2022-10-11T11:45:27.214Z,54.58
2022-10-11T11:48:06.750Z,54.63
2022-10-11T11:50:58.514Z,56.60
2022-10-11T11:53:40.237Z,55.37
2022-10-11T11:56:31.880Z,54.44
2022-10-11T11:59:23.313Z,54.30
2022-10-11T12:01:59.491Z,54.52
2022-10-11T12:04:29.876Z,54.69
2022-10-11T12:07:21.371Z,53.31
2022-10-11T12:09:50.632Z,54.55
2022-10-11T12:12:36.446Z,54.12
2022-10-11T12:15:09.021Z,54.31
2022-10-11T12:17:56.346Z,54.69
2022-10-11T12:20:25.720Z,54.05
2022-10-11T12:23:25.269Z,53.07
2022-10-11T12:26:18.279Z,52.29
2022-10-11T12:28:58.341Z,52.49
2022-10-11T12:31:30.197Z,53.63
2022-10-11T12:34:43.061Z,52.21
2022-10-11T12:37:19.088Z,53.33
2022-10-11T12:39:53.061Z,51.57
2022-10-11T12:42:40.421Z,52.09
2022-10-11T12:45:13.069Z,50.61
2022-10-11T12:48:03.621Z,50.56
2022-10-11T12:50:51.318Z,52.32
2022-10-11T12:53:17.586Z,51.12
2022-10-11T12:55:49.793Z,50.66
2022-10-11T12:58:29.621Z,50.80
2022-10-11T13:00:57.788Z,51.78
2022-10-11T13:03:39.297Z,51.71
2022-10-11T13:06:22.050Z,52.29
2022-10-11T13:08:54.476Z,52.19
2022-10-11T13:11:24.005Z,52.03
2022-10-11T13:14:17.917Z,51.91
2022-10-11T13:17:16.878Z,51.35
2022-10-11T13:19:43.492Z,52.46
2022-10-11T13:22:19.207Z,53.35
2022-10-11T13:24:45.685Z,52.00
2022-10-11T13:27:24.186Z,51.56
2022-10-11T13:29:53.119Z,52.57
2022-10-11T13:32:25.082Z,54.44
2022-10-11T13:35:19.724Z,55.59
2022-10-11T13:37:49.450Z,55.61
2022-10-11T13:40:17.722Z,55.59
2022-10-11T13:42:48.357Z,56.11
2022-10-11T13:45:18.454Z,56.84
2022-10-11T13:47:45.862Z,57.71
2022-10-11T13:50:15.438Z,58.37
2022-10-11T13:52:55.922Z,58.40
2022-10-11T13:55:42.465Z,58.60
2022-10-11T13:58:18.408Z,57.66
2022-10-11T14:01:18.589Z,55.51
2022-10-11T14:03:58.083Z,52.07
2022-10-11T14:06:25.153Z,50.53
2022-10-11T14:08:56.065Z,46.68
2022-10-11T14:11:35.183Z,42.55
2022-10-11T14:14:47.532Z,40.62
2022-10-11T14:17:16.807Z,40.35
2022-10-11T14:19:44.994Z,40.87
2022-10-11T14:22:18.228Z,41.03
2022-10-11T14:24:48.116Z,41.94
2022-10-11T14:27:20.591Z,43.77
2022-10-11T14:30:00.501Z,44.88
2022-10-11T14:32:34.669Z,47.06
2022-10-11T14:35:01.148Z,47.18
2022-10-11T14:37:27.616Z,48.77
2022-10-11T14:39:54.003Z,49.76
2022-10-11T14:42:20.413Z,50.06
2022-10-11T14:44:47.160Z,51.14
2022-10-11T14:47:15.831Z,53.14
2022-10-11T14:49:42.674Z,53.52
2022-10-11T14:52:12.257Z,54.29
2022-10-11T14:54:38.560Z,56.45
2022-10-11T14:57:05.158Z,55.36
2022-10-11T14:59:34.639Z,55.59
2022-10-11T15:02:02.106Z,55.82
2022-10-11T15:04:29.084Z,54.57
2022-10-11T15:06:56.902Z,55.22
2022-10-11T15:09:23.377Z,54.32
2022-10-11T15:11:51.158Z,52.05
2022-10-11T15:14:26.443Z,50.75
2022-10-11T15:16:53.101Z,49.08
2022-10-11T15:19:22.175Z,49.65
2022-10-11T15:21:49.094Z,50.26
2022-10-11T15:24:15.716Z,47.88
2022-10-11T15:26:42.272Z,46.47
2022-10-11T15:29:11.215Z,44.91
2022-10-11T15:31:37.638Z,45.09
2022-10-11T15:34:04.112Z,44.23
2022-10-11T15:36:30.651Z,43.17
2022-10-11T15:38:57.225Z,43.07
2022-10-11T15:41:23.957Z,44.50
2022-10-11T15:43:50.554Z,46.62
2022-10-11T15:46:19.760Z,48.32
2022-10-11T15:48:47.129Z,48.50
2022-10-11T15:51:13.549Z,50.06
2022-10-11T15:53:39.977Z,51.27
2022-10-11T15:56:09.312Z,52.08
2022-10-11T15:58:38.485Z,52.50
2022-10-11T16:01:30.317Z,53.79
2022-10-11T16:03:58.304Z,53.77
2022-10-11T16:06:24.920Z,54.26
2022-10-11T16:08:53.037Z,55.38
2022-10-11T16:11:19.447Z,56.33
2022-10-11T16:13:45.899Z,56.67
2022-10-11T16:16:12.580Z,57.59
2022-10-11T16:18:39.322Z,57.88
2022-10-11T16:21:15.181Z,58.16
2022-10-11T16:23:41.489Z,60.15
2022-10-11T16:26:15.034Z,59.08
2022-10-11T16:28:52.387Z,61.17
2022-10-11T16:31:20.868Z,61.73
2022-10-11T16:33:47.937Z,63.02
2022-10-11T16:36:32.424Z,63.86
2022-10-11T16:39:04.240Z,64.94
2022-10-11T16:41:30.846Z,65.38
2022-10-11T16:43:57.313Z,65.67
2022-10-11T16:46:23.873Z,66.09
2022-10-11T16:48:50.278Z,66.76
2022-10-11T16:51:16.665Z,67.06
2022-10-11T16:53:43.137Z,67.54
2022-10-11T16:56:11.869Z,68.10
2022-10-11T16:58:38.381Z,68.90
2022-10-11T17:01:09.547Z,69.02
2022-10-11T17:03:36.658Z,69.21
2022-10-11T17:06:12.790Z,69.21
2022-10-11T17:08:39.349Z,69.47
2022-10-11T17:11:06.334Z,69.45
2022-10-11T17:13:32.805Z,70.14
2022-10-11T17:15:59.389Z,70.50
2022-10-11T17:18:30.043Z,71.00
2022-10-11T17:21:33.628Z,72.62
2022-10-11T17:26:48.719Z,74.23
2022-10-11T17:29:31.168Z,72.26
2022-10-11T17:31:58.121Z,72.59
2022-10-11T17:34:24.598Z,73.34
2022-10-11T17:36:50.993Z,73.51
2022-10-11T17:39:19.809Z,73.65
2022-10-11T17:41:46.540Z,73.78
2022-10-11T17:44:13.213Z,73.99
2022-10-11T17:46:39.741Z,74.22
2022-10-11T17:49:07.710Z,74.66
2022-10-11T17:51:35.804Z,74.83
2022-10-11T17:54:02.978Z,75.06
2022-10-11T17:56:33.705Z,75.14
2022-10-11T17:59:03.197Z,75.25
2022-10-11T18:01:29.827Z,75.14
2022-10-11T18:03:58.599Z,75.66
2022-10-11T18:06:28.787Z,75.83
2022-10-11T18:08:57.123Z,75.78
2022-10-11T18:11:23.726Z,76.03
2022-10-11T18:13:51.958Z,76.15
2022-10-11T18:16:20.927Z,76.34
2022-10-11T18:18:47.511Z,76.62
2022-10-11T18:21:13.983Z,76.71
2022-10-11T18:23:40.973Z,76.69
2022-10-11T18:26:16.077Z,77.03
2022-10-11T18:28:43.331Z,77.07
2022-10-11T18:31:14.134Z,76.85
2022-10-11T18:33:42.013Z,77.20
2022-10-11T18:36:10.335Z,77.78
2022-10-11T18:38:38.006Z,77.80
2022-10-11T18:41:08.641Z,77.52
2022-10-11T18:43:35.344Z,77.76
2022-10-11T18:46:06.512Z,78.03
2022-10-11T18:48:33.358Z,78.38
2022-10-11T18:51:18.455Z,78.41
2022-10-11T18:53:45.531Z,78.49
2022-10-11T18:56:12.776Z,78.46
2022-10-11T18:58:40.301Z,78.75
2022-10-11T19:01:13.176Z,78.65
2022-10-11T19:03:39.599Z,78.55
2022-10-11T19:06:08.825Z,78.56
2022-10-11T19:08:35.439Z,78.79
2022-10-11T19:11:08.448Z,78.75
2022-10-11T19:13:35.671Z,78.69
2022-10-11T19:16:14.417Z,78.47
2022-10-11T19:18:44.256Z,78.22
2022-10-11T19:21:12.844Z,78.19
2022-10-11T19:23:44.595Z,78.95
2022-10-11T19:26:14.512Z,79.50
2022-10-11T19:28:40.922Z,81.05
2022-10-11T19:31:11.104Z,80.22
2022-10-11T19:33:37.482Z,79.82
2022-10-11T19:36:05.328Z,79.87
2022-10-11T19:38:33.509Z,79.99
2022-10-11T19:41:01.126Z,80.37
2022-10-11T19:43:27.743Z,80.57
2022-10-11T19:46:04.771Z,80.68
2022-10-11T19:48:31.762Z,80.25
2022-10-11T19:51:02.814Z,80.61
2022-10-11T19:53:29.217Z,80.78
2022-10-11T19:55:55.589Z,81.09
2022-10-11T19:58:21.951Z,81.46
2022-10-11T20:00:48.867Z,80.98
2022-10-11T20:03:15.235Z,80.94
2022-10-11T20:05:41.617Z,81.17
2022-10-11T20:08:07.978Z,81.68
2022-10-11T20:10:34.325Z,82.35
2022-10-11T20:13:00.692Z,82.50
2022-10-11T20:15:27.101Z,81.98
2022-10-11T20:17:53.547Z,82.46
2022-10-11T20:20:20.160Z,82.41
2022-10-11T20:22:46.618Z,82.53
2022-10-11T20:25:12.980Z,82.39
2022-10-11T20:27:42.327Z,82.18
2022-10-11T20:30:09.882Z,81.81
2022-10-11T20:32:36.249Z,82.12
2022-10-11T20:35:02.748Z,81.78
2022-10-11T20:37:29.105Z,82.21
2022-10-11T20:39:55.468Z,82.13
2022-10-11T20:42:24.288Z,82.98
2022-10-11T20:44:52.849Z,82.64
2022-10-11T20:47:19.209Z,83.15
2022-10-11T20:49:45.581Z,83.69
2022-10-11T20:52:12.009Z,83.38
2022-10-11T20:54:40.520Z,83.03
2022-10-11T20:57:07.046Z,82.90
2022-10-11T20:59:33.398Z,82.60
2022-10-11T21:01:59.864Z,82.77
2022-10-11T21:04:26.242Z,82.40
2022-10-11T21:06:52.623Z,82.81
2022-10-11T21:09:19.113Z,82.88
2022-10-11T21:11:45.716Z,82.86
2022-10-11T21:14:13.779Z,82.84
2022-10-11T21:16:40.212Z,82.62
2022-10-11T21:19:06.625Z,82.90
2022-10-11T21:21:33.014Z,82.89
2022-10-11T21:24:01.342Z,82.80
2022-10-11T21:26:28.652Z,82.69
2022-10-11T21:28:55.153Z,82.64
2022-10-11T21:31:22.381Z,82.23
2022-10-11T21:33:49.109Z,82.80
2022-10-11T21:36:20.477Z,82.99
2022-10-11T21:38:48.021Z,82.87
2022-10-11T21:41:17.075Z,82.76
2022-10-11T21:43:43.625Z,82.71
2022-10-11T21:47:04.962Z,83.02
2022-10-11T21:49:17.477Z,83.04
2022-10-11T21:51:43.900Z,83.19
2022-10-11T21:54:10.243Z,83.32
2022-10-11T21:56:36.623Z,83.82
2022-10-11T21:59:06.500Z,83.16
2022-10-11T22:01:36.769Z,83.11
2022-10-11T22:04:09.737Z,83.08
2022-10-11T22:06:37.298Z,83.08
2022-10-11T22:09:04.753Z,82.76
2022-10-11T22:11:31.213Z,82.78
2022-10-11T22:13:57.824Z,82.99
2022-10-11T22:16:24.210Z,83.45
2022-10-11T22:18:53.312Z,83.22
2022-10-11T22:21:22.168Z,83.35
2022-10-11T22:23:50.041Z,83.44
2022-10-11T22:26:18.691Z,83.59
2022-10-11T22:28:48.569Z,83.50
2022-10-11T22:31:15.831Z,84.15
2022-10-11T22:33:42.503Z,83.65
2022-10-11T22:36:10.348Z,83.35
2022-10-11T22:38:37.377Z,83.36
2022-10-11T22:41:03.743Z,83.74
2022-10-11T22:43:30.125Z,83.80
2022-10-11T22:45:56.608Z,83.63
2022-10-11T22:48:23.113Z,83.68
2022-10-11T22:50:49.517Z,83.96
2022-10-11T22:53:16.068Z,83.75
2022-10-11T22:55:42.415Z,83.35
2022-10-11T22:58:08.936Z,83.92
2022-10-11T23:00:35.373Z,83.90
2022-10-11T23:03:01.810Z,83.49
2022-10-11T23:05:28.217Z,83.50
2022-10-11T23:07:54.590Z,83.13
2022-10-11T23:10:21.044Z,83.26
2022-10-11T23:12:47.599Z,83.03
2022-10-11T23:15:15.181Z,83.15
2022-10-11T23:17:42.124Z,83.26
2022-10-11T23:20:09.060Z,83.30
2022-10-11T23:22:35.564Z,83.49
2022-10-11T23:25:01.912Z,83.59
2022-10-11T23:27:29.732Z,83.26
2022-10-11T23:29:56.161Z,83.49
2022-10-11T23:32:22.569Z,83.52
2022-10-11T23:34:48.928Z,83.51
2022-10-11T23:37:15.279Z,83.64
2022-10-11T23:39:41.643Z,84.05
2022-10-11T23:42:07.992Z,84.68
2022-10-11T23:44:34.340Z,84.63
2022-10-11T23:47:00.697Z,84.45
2022-10-11T23:49:27.046Z,84.26
2022-10-11T23:51:53.404Z,84.30
2022-10-11T23:54:19.761Z,83.80
2022-10-11T23:56:46.125Z,84.01
2022-10-11T23:59:12.522Z,84.36
